UTTT

Tashkent International Airport

Tashkent, Uzbekistan
TAF UTTT 240500Z 2406/2506 21010KT 7000 NSC TEMPO 2412/2420 3000 FU
Issued Valid From Valid To
Oct-24 @ 05:00 UTC
(54 minutes ago)
Oct-24 @ 06:00 UTC
(in 6 minutes)
Oct-25 @ 06:00 UTC
(in 24 hours)
Oct-24 @ 06:00 to Oct-25 @ 06:00
TAF UTTT 240500Z 2406/2506 21010KT 7000 NSC
Wind Visibility Clouds
210° at 10 knots 7,001 meters
  • No significant clouds
Temporary Oct-24 @ 12:00 to Oct-24 @ 20:00
TEMPO 2412/2420 3000 FU
Visibility Conditions
2,993 meters
  • Smoke
TAF UTTT 240500Z 2406/2506 21010KT 7000 NSC TEMPO 2412/2420 3000 FU
Issued Oct-24 @ 05:00 UTC
(54 minutes ago)
Valid From Oct-24 @ 06:00 UTC
(in 6 minutes)
Valid To Oct-25 @ 06:00 UTC
(in 24 hours)
Oct-24 @ 06:00 - Oct-25 @ 06:00
Wind Visibility
210° at 10 knots 7,001 meters
Clouds
  • No significant clouds
Temporary Oct-24 @ 12:00 - Oct-24 @ 20:00
Conditions
  • Smoke